createdAt,value
2023-04-18T00:01:28.894Z,16.42
2023-04-18T00:03:55.969Z,15.50
2023-04-18T00:06:22.580Z,16.13
2023-04-18T00:08:49.255Z,15.20
2023-04-18T00:13:42.233Z,15.10
2023-04-18T00:16:08.903Z,16.05
2023-04-18T00:18:36.817Z,15.40
2023-04-18T00:21:04.371Z,15.10
2023-04-18T00:23:31.158Z,15.88
2023-04-18T00:28:23.986Z,13.80
2023-04-18T00:30:50.609Z,13.52
2023-04-18T00:35:43.780Z,11.80
2023-04-18T00:38:10.477Z,14.80
2023-04-18T00:43:04.348Z,12.27
2023-04-18T00:45:30.874Z,13.38
2023-04-18T00:47:57.330Z,13.32
2023-04-18T00:50:24.597Z,12.70
2023-04-18T00:52:52.131Z,11.43
2023-04-18T00:55:18.916Z,14.77
2023-04-18T00:57:45.978Z,12.30
2023-04-18T01:00:12.962Z,11.77
2023-04-18T01:02:40.080Z,12.45
2023-04-18T01:05:08.039Z,12.43
2023-04-18T01:07:37.317Z,12.45
2023-04-18T01:10:04.396Z,12.73
2023-04-18T01:12:31.350Z,11.77
2023-04-18T01:14:58.956Z,13.40
2023-04-18T01:17:25.409Z,12.05
2023-04-18T01:19:51.880Z,11.48
2023-04-18T01:22:19.829Z,10.45
2023-04-18T01:24:46.261Z,10.85
2023-04-18T01:27:13.855Z,11.55
2023-04-18T01:29:41.018Z,12.18
2023-04-18T01:32:07.843Z,10.35
2023-04-18T01:34:34.424Z,11.35
2023-04-18T01:51:17.938Z,12.20
2023-04-18T01:53:44.493Z,13.25
2023-04-18T01:56:11.002Z,12.27
2023-04-18T01:58:37.552Z,13.25
2023-04-18T02:01:04.440Z,12.15
2023-04-18T02:03:31.134Z,12.60
2023-04-18T02:08:24.209Z,13.90
2023-04-18T02:10:50.783Z,12.98
2023-04-18T02:13:17.251Z,12.63
2023-04-18T02:15:45.940Z,12.98
2023-04-18T02:18:12.479Z,12.93
2023-04-18T02:20:39.349Z,12.50
2023-04-18T02:23:05.993Z,13.88
2023-04-18T02:25:32.829Z,13.38
2023-04-18T02:27:59.278Z,12.43
2023-04-18T02:30:26.323Z,13.73
2023-04-18T02:32:54.634Z,13.65
2023-04-18T02:35:21.344Z,13.70
2023-04-18T02:40:14.424Z,12.70
2023-04-18T02:42:40.952Z,11.88
2023-04-18T02:45:08.576Z,13.27
2023-04-18T02:47:46.900Z,12.32
2023-04-18T02:50:18.091Z,11.90
2023-04-18T02:52:44.581Z,12.68
2023-04-18T02:55:11.082Z,14.13
2023-04-18T02:57:37.563Z,13.57
2023-04-18T03:00:06.565Z,14.20
2023-04-18T03:02:33.130Z,12.25
2023-04-18T03:04:59.737Z,13.45
2023-04-18T03:07:26.390Z,13.68
2023-04-18T03:09:52.828Z,12.02
2023-04-18T03:12:19.274Z,13.10
2023-04-18T03:14:45.857Z,14.07
2023-04-18T03:17:12.428Z,12.15
2023-04-18T03:19:38.873Z,13.13
2023-04-18T03:22:06.020Z,13.13
2023-04-18T03:24:32.501Z,13.73
2023-04-18T03:27:00.562Z,14.18
2023-04-18T03:29:27.033Z,13.68
2023-04-18T03:31:53.753Z,12.90
2023-04-18T03:36:48.015Z,13.82
2023-04-18T03:39:14.807Z,12.55
2023-04-18T03:41:41.287Z,12.25
2023-04-18T03:44:07.729Z,14.55
2023-04-18T03:46:34.558Z,15.25
2023-04-18T03:49:01.176Z,14.40
2023-04-18T03:51:27.760Z,14.52
2023-04-18T03:53:54.234Z,13.20
2023-04-18T03:56:20.792Z,14.65
2023-04-18T03:58:47.236Z,15.18
2023-04-18T04:01:13.746Z,14.80
2023-04-18T04:03:40.554Z,14.13
2023-04-18T04:06:07.270Z,15.30
2023-04-18T04:08:33.971Z,16.35
2023-04-18T04:13:26.839Z,14.52
2023-04-18T04:15:53.401Z,15.05
2023-04-18T04:18:20.220Z,13.95
2023-04-18T04:20:46.671Z,14.75
2023-04-18T04:23:13.106Z,15.20
2023-04-18T04:25:39.596Z,14.57
2023-04-18T04:28:06.781Z,14.15
2023-04-18T04:30:33.758Z,15.70
2023-04-18T04:33:01.725Z,15.05
2023-04-18T04:35:28.444Z,14.80
2023-04-18T04:37:54.922Z,16.33
2023-04-18T04:40:23.050Z,15.60
2023-04-18T04:42:53.986Z,16.30
2023-04-18T04:45:20.717Z,15.60
2023-04-18T04:50:15.727Z,16.42
2023-04-18T04:52:42.834Z,15.10
2023-04-18T04:55:09.818Z,16.60
2023-04-18T04:57:36.315Z,15.57
2023-04-18T05:00:04.609Z,16.67
2023-04-18T05:02:31.404Z,16.17
2023-04-18T05:04:57.923Z,15.82
2023-04-18T05:07:24.378Z,16.23
2023-04-18T05:09:53.200Z,16.45
2023-04-18T05:12:19.813Z,16.67
2023-04-18T05:14:46.274Z,15.30
2023-04-18T05:17:12.764Z,16.02
2023-04-18T05:19:39.561Z,15.45
2023-04-18T05:24:32.927Z,14.48
2023-04-18T05:26:59.436Z,15.43
2023-04-18T05:29:26.089Z,15.90
2023-04-18T05:31:55.882Z,15.00
2023-04-18T05:34:22.415Z,16.70
2023-04-18T05:36:49.230Z,14.25
2023-04-18T05:39:16.824Z,14.18
2023-04-18T05:41:43.370Z,15.07
2023-04-18T05:44:09.929Z,14.07
2023-04-18T05:46:36.818Z,14.57
2023-04-18T05:49:04.204Z,13.80
2023-04-18T05:51:31.390Z,15.88
2023-04-18T05:54:12.469Z,15.30
2023-04-18T05:56:39.486Z,14.65
2023-04-18T06:01:35.769Z,14.05
2023-04-18T06:06:29.358Z,12.43
2023-04-18T06:11:22.742Z,11.52
2023-04-18T06:13:49.449Z,11.80
2023-04-18T06:16:16.142Z,11.23
2023-04-18T06:21:11.666Z,11.45
2023-04-18T06:23:38.634Z,11.20
2023-04-18T06:26:06.188Z,11.52
2023-04-18T06:28:33.018Z,11.93
2023-04-18T06:30:59.538Z,12.32
2023-04-18T06:33:26.226Z,11.48
2023-04-18T06:35:52.881Z,13.00
2023-04-18T06:40:45.857Z,10.95
2023-04-18T06:43:12.384Z,11.40
2023-04-18T06:45:38.979Z,12.18
2023-04-18T06:50:32.512Z,11.32
2023-04-18T06:52:58.983Z,11.98
2023-04-18T06:55:25.513Z,11.23
2023-04-18T06:57:52.123Z,12.00
2023-04-18T07:00:18.879Z,12.55
2023-04-18T07:05:12.403Z,12.52
2023-04-18T07:07:39.200Z,14.38
2023-04-18T07:12:32.592Z,11.43
2023-04-18T07:14:59.031Z,10.57
2023-04-18T07:17:25.676Z,10.82
2023-04-18T07:19:52.194Z,11.40
2023-04-18T07:22:18.626Z,15.32
2023-04-18T07:24:45.084Z,11.98
2023-04-18T07:27:11.569Z,10.07
2023-04-18T07:29:38.005Z,10.40
2023-04-18T07:32:06.122Z,9.77
2023-04-18T07:34:36.090Z,9.70
2023-04-18T07:37:02.728Z,10.65
2023-04-18T07:39:29.265Z,11.32
2023-04-18T07:41:55.800Z,9.93
2023-04-18T07:44:22.267Z,9.32
2023-04-18T07:46:48.763Z,9.75
2023-04-18T07:49:15.372Z,8.93
2023-04-18T07:54:08.370Z,9.93
2023-04-18T07:56:35.037Z,9.23
2023-04-18T07:59:01.839Z,9.52
2023-04-18T08:01:28.348Z,9.90
2023-04-18T08:03:56.580Z,8.77
2023-04-18T08:06:23.267Z,10.32
2023-04-18T08:08:53.054Z,9.45
2023-04-18T08:11:19.750Z,9.75
2023-04-18T08:13:46.325Z,10.70
2023-04-18T08:16:14.252Z,9.25
2023-04-18T08:18:42.741Z,9.57
2023-04-18T08:21:09.394Z,9.68
2023-04-18T08:23:35.842Z,9.35
2023-04-18T08:26:02.319Z,8.98
2023-04-18T08:28:28.798Z,9.43
2023-04-18T08:30:56.592Z,8.63
2023-04-18T08:33:24.101Z,8.70
2023-04-18T08:35:54.211Z,8.77
2023-04-18T08:38:21.046Z,8.90
2023-04-18T08:43:15.672Z,8.30
2023-04-18T08:45:43.187Z,8.20
2023-04-18T08:48:14.263Z,9.57
2023-04-18T08:50:42.122Z,8.05
2023-04-18T08:53:09.039Z,9.82
2023-04-18T08:55:36.008Z,8.15
2023-04-18T08:58:04.926Z,8.98
2023-04-18T09:00:31.442Z,9.40
2023-04-18T09:02:58.332Z,9.05
2023-04-18T09:05:26.984Z,8.98
2023-04-18T09:07:55.147Z,8.85
2023-04-18T09:10:33.430Z,8.18
2023-04-18T09:13:03.257Z,9.88
2023-04-18T09:15:30.693Z,10.35
2023-04-18T09:18:00.212Z,10.57
2023-04-18T09:20:38.184Z,9.70
2023-04-18T09:23:11.058Z,9.77
2023-04-18T09:25:45.084Z,9.40
2023-04-18T09:28:23.218Z,9.40
2023-04-18T09:30:54.331Z,9.38
2023-04-18T09:33:29.546Z,8.77
2023-04-18T09:35:57.288Z,9.23
2023-04-18T09:38:40.492Z,9.25
2023-04-18T09:41:13.437Z,9.57
2023-04-18T09:43:40.529Z,10.18
2023-04-18T09:46:09.136Z,9.63
2023-04-18T09:48:36.060Z,9.48
2023-04-18T09:53:34.861Z,8.80
2023-04-18T09:56:03.380Z,8.60
2023-04-18T09:58:33.112Z,8.85
2023-04-18T10:00:59.613Z,10.85
2023-04-18T10:03:35.055Z,9.30
2023-04-18T10:06:01.943Z,9.35
2023-04-18T10:10:56.639Z,8.73
2023-04-18T10:13:24.121Z,8.95
2023-04-18T10:15:52.426Z,9.18
2023-04-18T10:18:23.488Z,9.95
2023-04-18T10:20:50.030Z,8.68
2023-04-18T10:23:32.025Z,9.55
2023-04-18T10:25:59.223Z,9.23
2023-04-18T10:28:27.494Z,9.57
2023-04-18T10:30:56.661Z,8.55
2023-04-18T10:33:40.808Z,9.32
2023-04-18T10:36:08.853Z,9.07
2023-04-18T10:38:38.748Z,9.82
2023-04-18T10:41:21.309Z,8.18
2023-04-18T10:44:07.598Z,9.00
2023-04-18T10:46:39.090Z,8.53
2023-04-18T10:49:27.322Z,8.95
2023-04-18T10:51:56.411Z,9.57
2023-04-18T10:54:37.468Z,9.15
2023-04-18T10:57:05.425Z,9.50
2023-04-18T10:59:35.868Z,8.20
2023-04-18T11:02:11.357Z,8.27
2023-04-18T11:04:38.061Z,8.75
2023-04-18T11:09:31.370Z,8.13
2023-04-18T11:12:05.202Z,8.02
2023-04-18T11:14:45.919Z,9.43
2023-04-18T11:17:24.420Z,9.45
2023-04-18T11:19:59.342Z,9.40
2023-04-18T11:22:26.048Z,10.30
2023-04-18T11:24:57.202Z,9.43
2023-04-18T11:27:25.805Z,7.95
2023-04-18T11:29:56.038Z,8.35
2023-04-18T11:32:26.235Z,7.40
2023-04-18T11:34:54.569Z,7.65
2023-04-18T11:37:22.091Z,9.10
2023-04-18T11:39:48.752Z,9.18
2023-04-18T11:42:18.168Z,8.35
2023-04-18T11:44:49.061Z,8.82
2023-04-18T11:47:43.014Z,7.55
2023-04-18T11:50:12.617Z,8.43
2023-04-18T11:52:42.621Z,8.82
2023-04-18T11:55:15.086Z,8.15
2023-04-18T11:57:41.997Z,8.55
2023-04-18T12:00:10.482Z,8.90
2023-04-18T12:02:45.708Z,10.68
2023-04-18T12:05:15.005Z,9.50
2023-04-18T12:07:44.859Z,8.50
2023-04-18T12:10:20.149Z,8.80
2023-04-18T12:12:51.481Z,9.55
2023-04-18T12:15:19.088Z,9.70
2023-04-18T12:17:53.500Z,8.30
2023-04-18T12:20:20.163Z,9.25
2023-04-18T12:22:51.423Z,9.05
2023-04-18T12:25:27.414Z,8.00
2023-04-18T12:28:03.608Z,8.90
2023-04-18T12:30:37.381Z,9.63
2023-04-18T12:33:04.829Z,9.93
2023-04-18T12:35:32.663Z,9.50
2023-04-18T12:38:00.933Z,9.65
2023-04-18T12:40:28.895Z,9.88
2023-04-18T12:42:56.065Z,9.73
2023-04-18T12:45:23.687Z,9.95
2023-04-18T12:47:51.416Z,9.18
2023-04-18T12:50:20.113Z,10.63
2023-04-18T12:52:46.851Z,11.95
2023-04-18T12:55:14.067Z,11.10
2023-04-18T12:57:42.131Z,10.65
2023-04-18T13:00:11.252Z,11.48
2023-04-18T13:02:39.762Z,11.00
2023-04-18T13:05:08.070Z,11.10
2023-04-18T13:07:37.444Z,10.65
2023-04-18T13:10:04.882Z,10.77
2023-04-18T13:12:31.423Z,11.35
2023-04-18T13:14:57.918Z,11.50
2023-04-18T13:17:24.482Z,11.15
2023-04-18T13:19:51.921Z,11.10
2023-04-18T13:22:21.817Z,11.63
2023-04-18T13:24:48.578Z,10.73
2023-04-18T13:29:43.320Z,10.25
2023-04-18T13:32:10.206Z,10.50
2023-04-18T13:34:39.121Z,10.05
2023-04-18T13:37:06.428Z,10.57
2023-04-18T13:39:33.685Z,11.52
2023-04-18T13:42:02.982Z,10.55
2023-04-18T13:44:30.608Z,9.75
2023-04-18T13:46:57.780Z,9.70
2023-04-18T13:49:24.333Z,10.23
2023-04-18T13:51:53.524Z,9.88
2023-04-18T13:54:20.183Z,8.90
2023-04-18T13:56:46.757Z,8.68
2023-04-18T13:59:13.444Z,9.52
2023-04-18T14:04:06.896Z,9.10
2023-04-18T14:06:33.487Z,8.20
2023-04-18T14:08:59.927Z,9.00
2023-04-18T14:11:26.610Z,9.10
2023-04-18T14:16:19.724Z,9.27
2023-04-18T14:18:59.951Z,8.00
2023-04-18T14:21:26.656Z,8.48
2023-04-18T14:26:20.809Z,8.48
2023-04-18T14:28:47.724Z,9.18
2023-04-18T14:31:15.378Z,8.88
2023-04-18T14:33:42.286Z,7.93
2023-04-18T14:36:09.653Z,8.13
2023-04-18T14:38:36.640Z,8.13
2023-04-18T14:41:06.496Z,8.23
2023-04-18T14:43:32.953Z,8.57
2023-04-18T14:45:59.845Z,7.78
2023-04-18T14:48:27.657Z,7.75
2023-04-18T14:50:58.799Z,7.80
2023-04-18T14:56:54.035Z,7.00
2023-04-18T14:59:20.812Z,7.10
2023-04-18T15:01:47.476Z,7.03
2023-04-18T15:04:14.341Z,6.53
2023-04-18T15:06:41.528Z,5.95
2023-04-18T15:11:34.516Z,5.97
2023-04-18T15:14:06.836Z,6.90
2023-04-18T15:16:51.658Z,6.40
2023-04-18T15:19:18.247Z,5.20
2023-04-18T15:21:45.034Z,6.22
2023-04-18T15:24:11.846Z,6.22
2023-04-18T15:26:38.473Z,5.85
2023-04-18T15:29:05.005Z,5.55
2023-04-18T15:31:31.770Z,5.07
2023-04-18T15:36:24.727Z,4.95
2023-04-18T15:38:51.193Z,4.78
2023-04-18T15:41:17.641Z,4.90
2023-04-18T15:43:45.484Z,5.55
2023-04-18T15:46:12.211Z,4.68
2023-04-18T15:51:05.364Z,4.30
2023-04-18T15:53:31.943Z,4.55
2023-04-18T15:56:01.066Z,4.20
2023-04-18T15:58:30.160Z,3.67
2023-04-18T16:00:57.255Z,3.78
2023-04-18T16:03:24.679Z,4.32
2023-04-18T16:05:51.817Z,4.07
2023-04-18T16:08:18.271Z,3.75
2023-04-18T16:10:45.155Z,3.50
2023-04-18T16:13:11.663Z,3.33
2023-04-18T16:15:41.609Z,3.47
2023-04-18T16:18:08.727Z,3.35
2023-04-18T16:20:35.674Z,3.33
2023-04-18T16:23:02.434Z,2.90
2023-04-18T16:27:55.337Z,3.25
2023-04-18T16:30:21.873Z,2.78
2023-04-18T16:32:48.685Z,2.72
2023-04-18T16:35:15.269Z,3.28
2023-04-18T16:37:41.793Z,3.05
2023-04-18T16:40:10.239Z,2.80
2023-04-18T16:42:37.448Z,2.50
2023-04-18T16:45:04.281Z,2.88
2023-04-18T16:49:57.221Z,2.47
2023-04-18T16:52:24.597Z,3.00
2023-04-18T16:54:52.616Z,2.40
2023-04-18T16:57:19.322Z,2.63
2023-04-18T16:59:46.310Z,3.10
2023-04-18T17:02:13.104Z,2.95
2023-04-18T17:04:39.970Z,3.30
2023-04-18T17:09:54.577Z,3.30
2023-04-18T17:12:21.075Z,3.17
2023-04-18T17:14:47.555Z,3.60
2023-04-18T17:17:14.255Z,3.50
2023-04-18T17:19:47.107Z,3.17
2023-04-18T17:22:13.638Z,3.95
2023-04-18T17:24:40.073Z,3.70
2023-04-18T17:27:06.722Z,3.45
2023-04-18T17:31:59.694Z,4.03
2023-04-18T17:34:26.972Z,3.78
2023-04-18T17:36:53.425Z,4.05
2023-04-18T17:39:20.359Z,4.07
2023-04-18T17:41:46.843Z,3.72
2023-04-18T17:44:13.435Z,3.88
2023-04-18T17:46:39.884Z,4.13
2023-04-18T17:49:06.356Z,4.78
2023-04-18T17:51:32.826Z,4.78
2023-04-18T17:53:59.247Z,4.10
2023-04-18T17:56:26.541Z,3.97
2023-04-18T17:58:56.798Z,4.60
2023-04-18T18:01:28.826Z,4.32
2023-04-18T18:03:58.275Z,4.25
2023-04-18T18:06:24.996Z,4.93
2023-04-18T18:08:57.013Z,4.95
2023-04-18T18:11:30.729Z,5.30
2023-04-18T18:14:03.909Z,6.32
2023-04-18T18:16:30.425Z,4.65
2023-04-18T18:18:58.212Z,4.32
2023-04-18T18:21:24.662Z,5.80
2023-04-18T18:23:51.128Z,4.38
2023-04-18T18:26:17.707Z,4.28
2023-04-18T18:28:44.228Z,4.78
2023-04-18T18:31:10.984Z,4.78
2023-04-18T18:33:37.530Z,3.80
2023-04-18T18:36:04.307Z,5.82
2023-04-18T18:40:57.147Z,4.32
2023-04-18T18:43:26.280Z,4.60
2023-04-18T18:45:52.796Z,4.90
2023-04-18T18:48:19.237Z,3.63
2023-04-18T18:50:45.708Z,4.13
2023-04-18T18:53:12.148Z,4.22
2023-04-18T18:55:38.611Z,4.07
2023-04-18T18:58:17.036Z,4.60
2023-04-18T19:00:43.538Z,4.25
2023-04-18T19:03:10.107Z,4.20
2023-04-18T19:05:36.711Z,4.40
2023-04-18T19:08:04.976Z,4.60
2023-04-18T19:10:31.527Z,4.18
2023-04-18T19:12:58.026Z,4.45
2023-04-18T19:15:24.593Z,3.83
2023-04-18T19:17:51.338Z,4.28
2023-04-18T19:22:47.609Z,4.88
2023-04-18T19:25:14.410Z,4.32
2023-04-18T19:30:13.546Z,3.75
2023-04-18T19:32:40.233Z,4.35
2023-04-18T19:35:07.223Z,4.35
2023-04-18T19:37:33.929Z,4.85
2023-04-18T19:42:29.672Z,4.13
2023-04-18T19:47:23.220Z,4.93
2023-04-18T19:49:49.837Z,4.30
2023-04-18T19:52:19.196Z,4.43
2023-04-18T19:54:45.937Z,5.25
2023-04-18T19:59:41.286Z,5.32
2023-04-18T20:02:10.666Z,4.68
2023-04-18T20:04:37.772Z,4.10
2023-04-18T20:07:04.546Z,4.38
2023-04-18T20:12:00.555Z,5.75
2023-04-18T20:14:28.108Z,4.78
2023-04-18T20:16:56.119Z,5.65
2023-04-18T20:19:25.795Z,5.00
2023-04-18T20:21:54.852Z,4.95
2023-04-18T20:24:22.184Z,5.18
2023-04-18T20:26:48.926Z,4.97
2023-04-18T20:31:44.902Z,5.43
2023-04-18T20:34:11.605Z,4.88
2023-04-18T20:36:41.658Z,4.80
2023-04-18T20:39:09.223Z,5.43
2023-04-18T20:41:37.072Z,5.30
2023-04-18T20:44:06.601Z,4.70
2023-04-18T20:46:33.335Z,4.68
2023-04-18T20:49:11.081Z,4.72
2023-04-18T20:51:38.370Z,5.53
2023-04-18T20:54:07.116Z,4.93
2023-04-18T20:56:36.416Z,4.78
2023-04-18T20:59:04.778Z,5.68
2023-04-18T21:01:31.496Z,5.60
2023-04-18T21:06:24.675Z,5.90
2023-04-18T21:08:55.433Z,5.90
2023-04-18T21:11:21.968Z,5.15
2023-04-18T21:13:48.438Z,5.80
2023-04-18T21:16:15.073Z,6.00
2023-04-18T21:21:07.980Z,5.82
2023-04-18T21:23:41.380Z,5.93
2023-04-18T21:26:13.187Z,6.20
2023-04-18T21:29:00.132Z,5.80
2023-04-18T21:31:28.941Z,5.83
2023-04-18T21:33:56.893Z,6.18
2023-04-18T21:36:28.506Z,6.43
2023-04-18T21:38:56.235Z,6.57
2023-04-18T21:41:23.645Z,5.88
2023-04-18T21:43:50.642Z,7.22
2023-04-18T21:46:17.665Z,6.05
2023-04-18T21:48:46.973Z,5.57
2023-04-18T21:51:15.753Z,5.82
2023-04-18T21:53:42.841Z,6.28
2023-04-18T21:56:09.523Z,4.85
2023-04-18T22:01:02.778Z,5.75
2023-04-18T22:03:29.968Z,5.45
2023-04-18T22:05:57.454Z,5.25
2023-04-18T22:08:28.302Z,5.00
2023-04-18T22:10:57.689Z,4.97
2023-04-18T22:13:30.058Z,5.13
2023-04-18T22:15:58.240Z,5.00
2023-04-18T22:18:25.075Z,4.40
2023-04-18T22:23:20.394Z,4.53
2023-04-18T22:25:46.893Z,5.47
2023-04-18T22:28:13.374Z,5.45
2023-04-18T22:30:39.857Z,4.82
2023-04-18T22:33:06.361Z,4.55
2023-04-18T22:35:33.059Z,4.40
2023-04-18T22:40:25.850Z,3.33
2023-04-18T22:42:52.680Z,4.13
2023-04-18T22:45:19.486Z,4.35
2023-04-18T22:47:46.765Z,3.80
2023-04-18T22:50:14.074Z,4.32
2023-04-18T22:52:40.736Z,4.45
2023-04-18T22:57:33.879Z,3.92
2023-04-18T23:00:00.320Z,3.90
2023-04-18T23:02:26.961Z,3.85
2023-04-18T23:07:20.042Z,3.80
2023-04-18T23:09:46.448Z,3.53
2023-04-18T23:12:12.872Z,3.97
2023-04-18T23:14:41.779Z,4.97
2023-04-18T23:17:08.552Z,3.35
2023-04-18T23:22:01.584Z,3.60
2023-04-18T23:24:28.076Z,3.30
2023-04-18T23:26:54.539Z,4.28
2023-04-18T23:29:21.014Z,3.35
2023-04-18T23:31:47.472Z,3.38
2023-04-18T23:34:14.225Z,3.20
2023-04-18T23:36:40.788Z,4.38
2023-04-18T23:39:08.538Z,3.28
2023-04-18T23:41:35.007Z,3.50
2023-04-18T23:44:01.452Z,3.10
2023-04-18T23:46:27.952Z,3.22
2023-04-18T23:48:54.701Z,3.00
2023-04-18T23:53:47.493Z,2.97
2023-04-18T23:56:13.969Z,3.50
2023-04-18T23:58:40.460Z,3.40
